This is the latest recevied weather packets stored in our database for station/object AJ1L. If no packets are shown the sender has not sent any weather packets the latest 10 day(s).
| Time | Temp. | Humidity | Pressure | Rain* | Wind** | Luminosity | Snow |
|---|---|---|---|---|---|---|---|
| 1778094038 | 17.22° C | 76% | 1008.1 hPa | 0 mm | - | - | - |
| 1778093039 | 17.78° C | 74% | 1008.3 hPa | 0 mm | - | - | - |
| 1778092038 | 17.78° C | 72% | 1008.3 hPa | 0 mm | - | - | - |
| 1778091038 | 18.33° C | 72% | 1008.5 hPa | 0 mm | - | - | - |
| 1778090037 | 18.89° C | 70% | 1009 hPa | 0 mm | - | - | - |
| 1778089039 | 18.89° C | 69% | 1009.2 hPa | 0 mm | - | - | - |
| 1778088038 | 19.44° C | 69% | 1009.1 hPa | 0 mm | - | - | - |
| 1778086039 | 18.89° C | 69% | 1009.5 hPa | 0 mm | - | - | - |
| 1778084039 | 19.44° C | 68% | 1009.8 hPa | 0 mm | - | - | - |
| 1778083039 | 20° C | 68% | 1009.9 hPa | 0 mm | - | - | - |
| 1778082038 | 19.44° C | 69% | 1010.4 hPa | 0 mm | - | - | - |
| 1778081037 | 18.89° C | 70% | 1010.5 hPa | 0 mm | - | - | - |
| 1778080037 | 18.89° C | 71% | 1010.7 hPa | 0 mm | - | - | - |
| 1778077039 | 18.89° C | 69% | 1010.3 hPa | 0 mm | - | - | - |
| 1778076038 | 19.44° C | 69% | 1010.4 hPa | 0 mm | - | - | - |
| 1778073039 | 16.67° C | 78% | 1010.9 hPa | 0 mm | - | - | - |
| 1778071039 | 15.56° C | 81% | 1010.7 hPa | 0 mm | - | - | - |
| 1778070040 | 15° C | 84% | 1011.1 hPa | 0 mm | - | - | - |
| 1778069037 | 15° C | 83% | 1011.2 hPa | 0 mm | - | - | - |
| 1778068037 | 15° C | 84% | 1011.3 hPa | 0 mm | - | - | - |
| 1778067039 | 15° C | 85% | 1011.3 hPa | 0 mm | - | - | - |
| 1778066038 | 14.44° C | 86% | 1011.3 hPa | 0 mm | - | - | - |
| 1778064042 | 13.89° C | 87% | 1011.4 hPa | 0 mm | - | - | - |
| 1778063037 | 13.89° C | 87% | 1011.2 hPa | 0 mm | - | - | - |
| 1778062040 | 13.89° C | 88% | 1011.2 hPa | 0 mm | - | - | - |
* Rain latest hour (hover to see other rain measurements)
** Current wind speed in m/s (hover to see current wind gust speed)